Time;durP1;ratioP1;P1;durP2;ratioP2;P2;SDS_P1;SDS_P2;PMS_P1;PMS_P2;Temp;Humidity;BMP_temperature;BMP_pressure;BME280_temperature;BME280_humidity;BME280_pressure;Samples;Min_cycle;Max_cycle;Signal;HPM_P1;HPM_P2
2022/07/13 00:00:04;;;;;;;4.40;2.60;;;17.90;99.90;;;;;;4805892;29;20099;-66
2022/07/13 00:02:32;;;;;;;5.30;2.90;;;17.80;99.90;;;;;;4814724;29;20050;-67
2022/07/13 00:04:59;;;;;;;5.97;3.00;;;17.70;99.90;;;;;;4817381;29;20042;-67
2022/07/13 00:07:27;;;;;;;6.60;2.90;;;17.70;99.90;;;;;;4829643;29;20134;-67
2022/07/13 00:09:54;;;;;;;5.28;2.70;;;17.70;99.90;;;;;;4815665;29;20596;-67
2022/07/13 00:12:21;;;;;;;4.68;2.90;;;17.60;99.90;;;;;;4817188;29;20058;-67
2022/07/13 00:14:48;;;;;;;4.78;2.53;;;17.60;99.90;;;;;;4818138;29;20046;-67
2022/07/13 00:17:16;;;;;;;5.82;3.03;;;17.50;99.90;;;;;;4817790;29;20517;-67
2022/07/13 00:19:43;;;;;;;4.57;2.45;;;17.50;99.90;;;;;;4817952;29;20363;-66
2022/07/13 00:22:10;;;;;;;4.10;2.45;;;17.40;99.90;;;;;;4821814;29;20118;-66
2022/07/13 00:24:38;;;;;;;4.43;2.70;;;17.40;99.90;;;;;;4819997;29;20055;-67
2022/07/13 00:27:05;;;;;;;5.65;2.88;;;17.30;99.90;;;;;;4817775;29;20509;-66
2022/07/13 00:29:32;;;;;;;5.38;3.10;;;17.30;99.90;;;;;;4816632;29;20077;-65
2022/07/13 00:32:00;;;;;;;3.97;2.45;;;17.20;99.90;;;;;;4793003;29;20057;-67
2022/07/13 00:34:30;;;;;;;6.15;2.80;;;17.20;99.90;;;;;;4802651;29;20065;-66
2022/07/13 00:36:58;;;;;;;4.30;2.50;;;17.10;99.90;;;;;;4810277;29;20053;-67
2022/07/13 00:39:25;;;;;;;5.63;2.88;;;17.10;99.90;;;;;;4807690;29;20117;-67
2022/07/13 00:41:52;;;;;;;7.05;2.60;;;17.10;99.90;;;;;;4810293;29;20403;-67
2022/07/13 00:44:20;;;;;;;4.70;3.00;;;17.00;99.90;;;;;;4818987;29;20131;-67
2022/07/13 00:46:53;;;;;;;5.32;2.50;;;17.00;99.90;;;;;;4835329;29;20142;-67
2022/07/13 00:49:22;;;;;;;7.35;2.50;;;17.00;99.90;;;;;;4804896;29;20075;-67
2022/07/13 00:51:50;;;;;;;5.75;3.03;;;16.90;99.90;;;;;;4803176;29;20414;-67
2022/07/13 00:54:28;;;;;;;5.53;2.30;;;16.90;99.90;;;;;;4810567;29;20046;-66
2022/07/13 00:56:57;;;;;;;5.75;2.55;;;16.90;99.90;;;;;;4818322;29;20042;-67
2022/07/13 00:59:25;;;;;;;4.00;2.40;;;16.90;99.90;;;;;;4810538;29;20070;-67
2022/07/13 01:01:54;;;;;;;3.92;2.30;;;16.90;99.90;;;;;;4812723;29;21288;-67
2022/07/13 01:04:25;;;;;;;4.88;2.65;;;16.80;99.90;;;;;;4792858;29;20518;-68
2022/07/13 01:06:54;;;;;;;4.38;2.30;;;16.80;99.90;;;;;;4819211;29;20054;-67
2022/07/13 01:09:26;;;;;;;5.35;2.42;;;16.80;99.90;;;;;;4814793;29;20521;-67
2022/07/13 01:11:53;;;;;;;5.30;2.45;;;16.80;99.90;;;;;;4814849;29;20429;-67
2022/07/13 01:14:22;;;;;;;6.38;2.47;;;16.80;99.90;;;;;;4809222;29;20077;-67
2022/07/13 01:16:50;;;;;;;3.83;2.40;;;16.80;99.90;;;;;;4812285;29;20571;-69
2022/07/13 01:19:18;;;;;;;5.20;2.80;;;16.80;99.90;;;;;;4809485;29;20085;-67
2022/07/13 01:21:48;;;;;;;4.00;2.45;;;16.70;99.90;;;;;;4812653;29;20510;-67
2022/07/13 01:24:16;;;;;;;4.63;2.33;;;16.80;99.90;;;;;;4819461;29;20065;-67
2022/07/13 01:26:43;;;;;;;4.80;2.80;;;16.70;99.90;;;;;;4820290;29;20058;-68
2022/07/13 01:29:10;;;;;;;3.38;2.28;;;16.70;99.90;;;;;;4819465;29;20058;-67
2022/07/13 01:31:39;;;;;;;4.82;2.30;;;16.70;99.90;;;;;;4807312;29;20062;-67
2022/07/13 01:34:09;;;;;;;4.28;2.50;;;16.70;99.90;;;;;;4805031;29;20050;-67
2022/07/13 01:36:37;;;;;;;3.95;2.20;;;16.70;99.90;;;;;;4810141;29;20126;-68
2022/07/13 01:39:05;;;;;;;4.47;2.28;;;16.60;99.90;;;;;;4817986;29;20450;-67
2022/07/13 01:41:33;;;;;;;5.90;2.50;;;16.60;99.90;;;;;;4819204;29;20053;-67
2022/07/13 01:44:01;;;;;;;4.70;2.55;;;16.60;99.90;;;;;;4819373;29;20144;-67
2022/07/13 01:46:30;;;;;;;4.30;2.45;;;16.50;99.90;;;;;;4819223;29;20050;-67
2022/07/13 01:48:58;;;;;;;3.80;2.38;;;16.50;99.90;;;;;;4803234;29;20563;-67
2022/07/13 01:51:25;;;;;;;4.07;2.47;;;16.50;99.90;;;;;;4812940;29;20038;-67
2022/07/13 01:53:52;;;;;;;5.88;3.05;;;16.50;99.90;;;;;;4814520;29;20103;-67
2022/07/13 01:56:20;;;;;;;4.75;2.95;;;16.40;99.90;;;;;;4787384;29;20051;-67
2022/07/13 01:58:48;;;;;;;4.57;2.42;;;16.40;99.90;;;;;;4807521;29;20042;-67
2022/07/13 02:01:15;;;;;;;4.80;2.80;;;16.40;99.90;;;;;;4802420;29;20514;-67
2022/07/13 02:03:45;;;;;;;5.10;2.58;;;16.40;99.90;;;;;;4817187;29;20443;-67
2022/07/13 02:06:12;;;;;;;6.50;2.58;;;16.40;99.90;;;;;;4819325;29;20197;-68
2022/07/13 02:08:40;;;;;;;3.50;2.40;;;16.40;99.90;;;;;;4819003;29;20050;-68
2022/07/13 02:11:18;;;;;;;4.78;2.50;;;16.40;99.90;;;;;;4795287;29;20406;-67
2022/07/13 02:13:46;;;;;;;4.10;2.67;;;16.40;99.90;;;;;;4818375;29;20118;-67
2022/07/13 02:16:14;;;;;;;5.85;2.40;;;16.30;99.90;;;;;;4799614;29;20053;-67
2022/07/13 02:18:42;;;;;;;5.25;2.30;;;16.30;99.90;;;;;;4789196;29;20042;-67
2022/07/13 02:21:11;;;;;;;5.60;2.53;;;16.30;99.90;;;;;;4818611;29;20133;-67
2022/07/13 02:23:39;;;;;;;3.55;2.35;;;16.20;99.90;;;;;;4817323;29;20049;-67
2022/07/13 02:26:06;;;;;;;5.05;2.90;;;16.20;99.90;;;;;;4820291;29;20119;-67
2022/07/13 02:28:33;;;;;;;4.57;3.00;;;16.20;99.90;;;;;;4817901;29;20498;-67
2022/07/13 02:31:01;;;;;;;5.25;2.97;;;16.20;99.90;;;;;;4818926;29;20058;-67
2022/07/13 02:33:28;;;;;;;4.72;2.60;;;16.10;99.90;;;;;;4802626;29;20074;-67
2022/07/13 02:35:56;;;;;;;3.83;2.28;;;16.20;99.90;;;;;;4818407;29;20134;-67
2022/07/13 02:38:23;;;;;;;5.85;2.60;;;16.10;99.90;;;;;;4803707;29;20062;-67
2022/07/13 02:40:53;;;;;;;6.50;2.78;;;16.20;99.90;;;;;;4794607;29;20057;-67
2022/07/13 02:43:20;;;;;;;4.15;2.65;;;16.20;99.90;;;;;;4825430;29;20049;-67
2022/07/13 02:45:47;;;;;;;4.22;2.63;;;16.20;99.90;;;;;;4818543;29;20469;-67
2022/07/13 02:48:15;;;;;;;5.00;2.55;;;16.30;99.90;;;;;;4819858;29;20153;-67
2022/07/13 02:50:42;;;;;;;3.97;2.72;;;16.30;99.90;;;;;;4814128;29;20421;-67
2022/07/13 02:53:10;;;;;;;5.30;3.05;;;16.40;99.90;;;;;;4803115;29;20585;-67
2022/07/13 02:55:37;;;;;;;4.22;2.45;;;16.50;99.90;;;;;;4820981;29;20076;-67
2022/07/13 02:58:05;;;;;;;5.22;2.85;;;16.60;99.90;;;;;;4806894;29;20472;-67
2022/07/13 03:00:32;;;;;;;6.35;2.50;;;16.60;99.90;;;;;;4836541;29;20034;-68
2022/07/13 03:03:00;;;;;;;4.18;2.45;;;16.70;99.90;;;;;;4806537;29;20065;-67
2022/07/13 03:05:27;;;;;;;5.78;2.80;;;16.70;99.90;;;;;;4822652;29;20383;-67
2022/07/13 03:07:55;;;;;;;4.25;2.50;;;16.70;99.90;;;;;;4804185;29;20558;-67
2022/07/13 03:10:23;;;;;;;5.35;2.50;;;16.80;99.90;;;;;;4821742;29;20046;-66
2022/07/13 03:12:55;;;;;;;6.63;3.13;;;16.80;99.90;;;;;;4805480;29;20061;-67
2022/07/13 03:15:22;;;;;;;4.82;2.78;;;16.80;99.90;;;;;;4836607;29;20454;-67
2022/07/13 03:17:50;;;;;;;5.72;2.63;;;16.80;99.90;;;;;;4820834;29;20468;-67
2022/07/13 03:20:19;;;;;;;4.70;2.40;;;16.90;99.90;;;;;;4803541;29;20054;-67
2022/07/13 03:22:48;;;;;;;5.47;3.05;;;16.80;99.90;;;;;;4814003;29;20518;-66
2022/07/13 03:25:15;;;;;;;6.38;3.50;;;16.80;99.90;;;;;;4805278;29;20050;-66
2022/07/13 03:27:50;;;;;;;6.18;4.05;;;16.80;99.90;;;;;;4821416;29;20572;-67
2022/07/13 03:30:19;;;;;;;6.70;3.65;;;16.80;99.90;;;;;;4817514;29;20053;-67
2022/07/13 03:32:48;;;;;;;5.30;3.70;;;16.80;99.90;;;;;;4821264;29;20046;-67
2022/07/13 03:35:16;;;;;;;4.85;2.97;;;16.80;99.90;;;;;;4818353;29;20073;-67
2022/07/13 03:37:46;;;;;;;6.13;3.63;;;16.70;99.90;;;;;;4790908;29;20095;-68
2022/07/13 03:40:14;;;;;;;5.30;3.05;;;16.70;99.90;;;;;;4805791;29;20163;-67
2022/07/13 03:42:42;;;;;;;6.68;3.78;;;16.70;99.90;;;;;;4806057;29;20440;-67
2022/07/13 03:45:10;;;;;;;5.97;3.45;;;16.70;99.90;;;;;;4820077;29;20511;-67
2022/07/13 03:47:38;;;;;;;5.95;2.88;;;16.70;99.90;;;;;;4822047;29;20471;-67
2022/07/13 03:50:07;;;;;;;10.48;4.00;;;16.70;99.90;;;;;;4815695;29;20055;-67
2022/07/13 03:52:42;;;;;;;7.68;3.72;;;16.70;99.90;;;;;;4814097;29;20604;-66
2022/07/13 03:55:11;;;;;;;6.97;3.00;;;16.70;99.90;;;;;;4819704;29;20470;-66
2022/07/13 03:57:38;;;;;;;6.60;2.85;;;16.70;99.90;;;;;;4820558;29;20067;-66
2022/07/13 04:00:07;;;;;;;7.10;3.40;;;16.70;99.90;;;;;;4805479;29;20050;-67
2022/07/13 04:02:41;;;;;;;6.05;3.08;;;16.80;99.90;;;;;;4811247;29;20054;-67
2022/07/13 04:05:12;;;;;;;7.05;2.97;;;16.80;99.90;;;;;;4819297;29;20083;-68
2022/07/13 04:07:42;;;;;;;7.28;3.53;;;16.80;99.90;;;;;;4819921;29;20052;-67
2022/07/13 04:10:10;;;;;;;6.70;3.28;;;17.00;99.90;;;;;;4815601;29;20057;-67
2022/07/13 04:12:42;;;;;;;6.15;3.50;;;17.00;99.90;;;;;;4801441;29;20074;-67
2022/07/13 04:15:09;;;;;;;4.07;2.40;;;17.00;99.90;;;;;;4818583;29;20045;-67
2022/07/13 04:17:37;;;;;;;5.57;2.80;;;17.10;99.90;;;;;;4804340;29;20174;-67
2022/07/13 04:20:06;;;;;;;7.10;2.83;;;17.10;99.90;;;;;;4820974;29;20095;-67
2022/07/13 04:22:33;;;;;;;5.03;2.85;;;17.10;99.90;;;;;;4820595;29;20046;-68
2022/07/13 04:25:04;;;;;;;5.95;3.30;;;17.10;99.90;;;;;;4800885;29;20051;-67
2022/07/13 04:27:32;;;;;;;6.87;2.90;;;17.00;99.90;;;;;;4820804;29;20085;-67
2022/07/13 04:29:59;;;;;;;4.95;2.67;;;17.00;99.90;;;;;;4818778;29;20550;-67
2022/07/13 04:32:27;;;;;;;6.38;2.60;;;17.00;99.90;;;;;;4818236;29;20142;-67
2022/07/13 04:34:54;;;;;;;5.53;2.83;;;17.00;99.90;;;;;;4787175;29;20070;-66
2022/07/13 04:37:23;;;;;;;6.43;3.00;;;17.00;99.90;;;;;;4817718;29;20483;-66
2022/07/13 04:39:52;;;;;;;6.95;2.80;;;17.00;99.90;;;;;;4790969;29;20073;-67
2022/07/13 04:42:20;;;;;;;7.82;2.40;;;17.00;99.90;;;;;;4809280;29;20074;-68
2022/07/13 04:44:48;;;;;;;5.60;2.55;;;17.10;99.90;;;;;;4801582;29;20046;-68
2022/07/13 04:47:15;;;;;;;5.78;2.63;;;17.20;99.90;;;;;;4810627;29;20074;-67
2022/07/13 04:49:43;;;;;;;6.82;2.80;;;17.30;99.90;;;;;;4820527;29;20042;-68
2022/07/13 04:52:10;;;;;;;7.22;3.05;;;17.30;99.90;;;;;;4785231;29;20426;-68
2022/07/13 04:54:41;;;;;;;4.65;2.65;;;17.40;99.90;;;;;;4800762;29;20073;-67
2022/07/13 04:57:08;;;;;;;8.52;5.30;;;17.40;99.90;;;;;;4811866;29;20601;-67
2022/07/13 04:59:35;;;;;;;6.88;3.40;;;17.50;99.90;;;;;;4802914;29;20452;-68
2022/07/13 05:02:04;;;;;;;6.32;3.28;;;17.50;99.90;;;;;;4813511;29;20039;-67
2022/07/13 05:04:31;;;;;;;5.70;3.63;;;17.50;99.90;;;;;;4816914;29;20099;-67
2022/07/13 05:07:00;;;;;;;10.57;4.15;;;17.60;99.90;;;;;;4808123;29;20463;-69
2022/07/13 05:09:28;;;;;;;6.28;3.83;;;17.70;99.90;;;;;;4782460;29;20062;-68
2022/07/13 05:11:56;;;;;;;10.00;4.10;;;17.90;99.90;;;;;;4807521;29;20044;-68
2022/07/13 05:14:23;;;;;;;6.45;3.70;;;18.10;99.90;;;;;;4818043;29;20088;-68
2022/07/13 05:16:52;;;;;;;6.30;3.65;;;18.30;99.90;;;;;;4804024;29;20506;-66
2022/07/13 05:19:19;;;;;;;6.38;4.05;;;18.50;99.90;;;;;;4806055;29;20057;-66
2022/07/13 05:21:48;;;;;;;5.53;2.92;;;18.80;99.90;;;;;;4805792;29;20054;-66
2022/07/13 05:24:16;;;;;;;6.28;2.83;;;19.10;99.90;;;;;;4830416;29;20150;-67
2022/07/13 05:26:43;;;;;;;6.45;3.08;;;19.20;99.90;;;;;;4812630;29;20049;-67
2022/07/13 05:29:12;;;;;;;5.93;2.92;;;19.40;99.90;;;;;;4818904;29;20073;-67
2022/07/13 05:31:42;;;;;;;4.55;2.90;;;19.60;99.90;;;;;;4807215;29;20066;-67
2022/07/13 05:34:10;;;;;;;6.07;3.00;;;19.70;99.90;;;;;;4800261;29;20043;-67
2022/07/13 05:36:43;;;;;;;9.43;3.10;;;19.80;99.90;;;;;;4819412;29;20046;-68
2022/07/13 05:39:10;;;;;;;6.95;3.05;;;19.90;99.90;;;;;;4816392;29;20447;-68
2022/07/13 05:41:39;;;;;;;5.53;3.17;;;20.00;99.90;;;;;;4805859;29;20133;-68
2022/07/13 05:44:06;;;;;;;8.77;2.80;;;20.00;99.90;;;;;;4806359;29;20042;-68
2022/07/13 05:46:34;;;;;;;6.40;2.83;;;20.10;99.90;;;;;;4820055;29;20055;-68
2022/07/13 05:49:03;;;;;;;5.93;2.97;;;20.30;99.90;;;;;;4799797;29;20522;-67
2022/07/13 05:51:31;;;;;;;11.95;3.22;;;20.40;99.90;;;;;;4799961;29;20532;-68
2022/07/13 05:54:02;;;;;;;;;;;20.50;99.90;;;;;;4787189;29;20061;-67
2022/07/13 05:56:50;;;;;;;6.25;3.10;;;20.70;99.90;;;;;;4803464;29;19936;-67
2022/07/13 05:59:17;;;;;;;6.38;2.95;;;20.80;99.90;;;;;;4817325;29;20440;-66
2022/07/13 06:01:44;;;;;;;6.45;3.08;;;20.90;99.90;;;;;;4811342;29;20506;-66
2022/07/13 06:04:12;;;;;;;5.75;2.88;;;20.90;99.90;;;;;;4818472;29;20059;-67
2022/07/13 06:06:40;;;;;;;7.10;3.28;;;21.00;99.90;;;;;;4805357;29;20058;-66
2022/07/13 06:09:07;;;;;;;9.25;3.20;;;21.00;99.90;;;;;;4824882;29;20061;-67
2022/07/13 06:11:34;;;;;;;7.22;2.92;;;21.10;99.90;;;;;;4806333;29;20506;-67
2022/07/13 06:14:02;;;;;;;9.68;3.20;;;21.30;99.90;;;;;;4803734;29;20488;-67
2022/07/13 06:16:29;;;;;;;8.32;3.20;;;21.30;99.90;;;;;;4814849;29;20046;-67
2022/07/13 06:18:56;;;;;;;6.53;2.97;;;21.50;99.90;;;;;;4803410;29;20120;-67
2022/07/13 06:21:23;;;;;;;5.70;2.65;;;21.60;99.90;;;;;;4806368;29;20051;-68
2022/07/13 06:23:51;;;;;;;5.63;2.83;;;21.80;99.90;;;;;;4803734;29;20054;-67
2022/07/13 06:26:18;;;;;;;8.18;2.78;;;21.90;99.90;;;;;;4804398;29;20051;-68
2022/07/13 06:28:46;;;;;;;9.15;3.22;;;21.90;99.90;;;;;;4790689;29;20541;-67
2022/07/13 06:31:20;;;;;;;14.60;3.72;;;21.80;99.90;;;;;;4796223;29;20057;-67
2022/07/13 06:33:51;;;;;;;5.55;2.65;;;22.00;99.90;;;;;;4803030;29;20049;-67
2022/07/13 06:36:19;;;;;;;10.68;3.15;;;22.20;99.90;;;;;;4807252;29;20402;-67
2022/07/13 06:38:46;;;;;;;7.43;2.50;;;22.10;99.90;;;;;;4801850;29;20525;-68
2022/07/13 06:41:15;;;;;;;11.45;2.90;;;22.30;99.90;;;;;;4806825;29;20066;-67
2022/07/13 06:43:43;;;;;;;6.75;2.55;;;22.40;99.90;;;;;;4797924;29;20103;-67
2022/07/13 06:46:10;;;;;;;7.78;2.80;;;22.50;99.90;;;;;;4804392;29;20070;-68
2022/07/13 06:48:38;;;;;;;5.70;2.80;;;22.60;99.90;;;;;;4805564;29;20184;-67
2022/07/13 06:51:05;;;;;;;6.20;2.50;;;22.90;99.90;;;;;;4789658;29;20483;-68
2022/07/13 06:53:33;;;;;;;7.63;2.80;;;23.00;99.90;;;;;;4806551;29;20178;-68
2022/07/13 06:56:01;;;;;;;4.88;2.65;;;23.00;99.90;;;;;;4810024;29;20050;-68
2022/07/13 06:58:28;;;;;;;7.20;2.80;;;23.00;99.90;;;;;;4804439;29;20039;-66
2022/07/13 07:00:55;;;;;;;7.32;2.70;;;23.10;99.90;;;;;;4808161;29;20079;-68
2022/07/13 07:03:23;;;;;;;6.25;2.60;;;23.20;99.90;;;;;;4804010;29;20059;-68
2022/07/13 07:05:51;;;;;;;8.07;3.42;;;23.40;99.90;;;;;;4804594;29;20053;-67
2022/07/13 07:08:19;;;;;;;6.32;2.83;;;23.40;99.90;;;;;;4818734;29;20217;-67
2022/07/13 07:10:46;;;;;;;6.57;2.65;;;23.70;99.90;;;;;;4812279;29;20047;-67
2022/07/13 07:13:14;;;;;;;10.00;2.72;;;23.90;99.90;;;;;;4814620;29;20434;-68
2022/07/13 07:15:42;;;;;;;4.50;2.65;;;23.90;99.90;;;;;;4819319;29;20409;-68
2022/07/13 07:18:09;;;;;;;6.57;2.38;;;23.80;99.90;;;;;;4814352;29;20128;-69
2022/07/13 07:20:37;;;;;;;5.72;2.70;;;24.00;99.90;;;;;;4832299;29;20046;-68
2022/07/13 07:23:04;;;;;;;5.13;2.38;;;24.10;99.90;;;;;;4808880;29;20414;-69
2022/07/13 07:25:31;;;;;;;8.23;3.10;;;24.10;99.90;;;;;;4819076;29;20459;-68
2022/07/13 07:27:59;;;;;;;9.48;2.40;;;24.10;99.90;;;;;;4796066;29;20589;-69
2022/07/13 07:30:26;;;;;;;4.10;2.10;;;24.20;99.90;;;;;;4815538;29;20110;-68
2022/07/13 07:32:53;;;;;;;6.50;2.80;;;24.50;99.90;;;;;;4816133;29;20521;-67
2022/07/13 07:35:21;;;;;;;7.03;2.67;;;24.60;99.90;;;;;;4802311;29;20066;-67
2022/07/13 07:37:49;;;;;;;6.32;2.30;;;24.50;99.90;;;;;;4820079;29;20046;-67
2022/07/13 07:40:16;;;;;;;6.72;2.83;;;24.50;99.90;;;;;;4815742;29;20521;-67
2022/07/13 07:42:43;;;;;;;5.20;2.63;;;24.70;99.90;;;;;;4819040;29;20057;-67
2022/07/13 07:45:11;;;;;;;6.10;2.47;;;24.90;99.90;;;;;;4821278;29;20466;-68
2022/07/13 07:47:39;;;;;;;5.90;2.08;;;25.00;99.90;;;;;;4814717;29;20051;-68
2022/07/13 07:50:08;;;;;;;6.72;2.80;;;25.00;99.90;;;;;;4817092;29;20047;-67
2022/07/13 07:52:35;;;;;;;3.42;1.80;;;25.00;99.90;;;;;;4809562;29;20051;-68
2022/07/13 07:55:21;;;;;;;8.30;2.08;;;25.00;99.90;;;;;;4816349;29;20043;-68
2022/07/13 07:57:52;;;;;;;5.30;2.00;;;24.90;99.90;;;;;;4820124;29;20062;-67
2022/07/13 08:00:20;;;;;;;5.93;2.20;;;25.10;99.90;;;;;;4794749;29;20085;-67
2022/07/13 08:02:48;;;;;;;5.05;2.10;;;25.30;99.90;;;;;;4814949;29;20204;-68
2022/07/13 08:05:16;;;;;;;4.05;2.03;;;25.50;99.90;;;;;;4801413;29;20075;-68
2022/07/13 08:07:45;;;;;;;5.47;2.13;;;25.60;99.90;;;;;;4803813;29;20145;-68
2022/07/13 08:10:14;;;;;;;6.85;1.98;;;26.00;99.90;;;;;;4816318;29;20164;-68
2022/07/13 08:12:59;;;;;;;7.22;1.70;;;26.30;99.90;;;;;;4807888;29;20050;-68
2022/07/13 08:15:27;;;;;;;9.73;1.95;;;25.90;99.90;;;;;;4820011;29;20141;-68
2022/07/13 08:17:56;;;;;;;6.43;1.60;;;26.00;99.90;;;;;;4795289;29;20518;-68
2022/07/13 08:20:24;;;;;;;5.78;1.65;;;26.20;99.90;;;;;;4811955;29;20480;-68
2022/07/13 08:22:51;;;;;;;6.18;1.77;;;26.20;99.90;;;;;;4814636;29;20043;-68
2022/07/13 08:25:20;;;;;;;5.20;1.83;;;26.00;99.90;;;;;;4814448;29;20130;-68
2022/07/13 08:27:47;;;;;;;6.18;1.80;;;26.00;99.90;;;;;;4805473;29;20262;-68
2022/07/13 08:30:15;;;;;;;3.85;1.77;;;26.20;99.90;;;;;;4820183;29;20190;-69
2022/07/13 08:32:42;;;;;;;4.95;1.88;;;26.30;99.90;;;;;;4824819;29;20103;-69
2022/07/13 08:40:42;;;;;;;4.07;1.80;;;26.90;99.90;;;;;;4805133;29;20137;-69
2022/07/13 08:43:10;;;;;;;4.88;1.63;;;27.10;99.90;;;;;;4800847;29;20054;-68
2022/07/13 08:45:37;;;;;;;4.93;1.80;;;27.10;99.90;;;;;;4816864;29;20293;-69
2022/07/13 08:48:20;;;;;;;5.90;1.40;;;27.20;99.90;;;;;;4819680;29;20048;-69
2022/07/13 08:50:48;;;;;;;5.47;1.88;;;27.60;99.90;;;;;;4814845;29;20051;-69
2022/07/13 08:53:16;;;;;;;6.82;1.77;;;27.50;99.90;;;;;;4813429;29;20046;-68
2022/07/13 08:55:44;;;;;;;3.90;1.77;;;27.40;99.90;;;;;;4819777;29;20050;-68
2022/07/13 08:58:17;;;;;;;5.82;1.67;;;27.40;99.90;;;;;;4813453;29;20433;-69
2022/07/13 09:00:45;;;;;;;9.63;1.90;;;27.20;99.90;;;;;;4801301;29;20051;-67
2022/07/13 09:03:12;;;;;;;4.00;1.55;;;27.30;99.90;;;;;;4813982;29;20383;-68
2022/07/13 09:05:40;;;;;;;3.65;1.70;;;27.10;99.90;;;;;;4816456;29;20057;-67
2022/07/13 09:08:09;;;;;;;4.53;1.85;;;27.00;99.90;;;;;;4815267;29;20035;-69
2022/07/13 09:11:00;;;;;;;3.70;1.58;;;26.70;99.90;;;;;;4822049;29;20395;-70
2022/07/13 09:13:41;;;;;;;5.67;1.80;;;26.50;99.90;;;;;;4819200;29;20125;-68
2022/07/13 09:16:19;;;;;;;5.10;1.75;;;26.40;99.90;;;;;;4809421;29;20058;-68
2022/07/13 09:18:53;;;;;;;5.90;1.70;;;26.30;99.90;;;;;;4818798;29;20106;-69
2022/07/13 09:21:31;;;;;;;4.32;1.70;;;26.40;99.90;;;;;;4817467;29;20111;-68
2022/07/13 09:24:01;;;;;;;3.88;1.60;;;26.70;99.90;;;;;;4820799;29;20114;-68
2022/07/13 09:26:42;;;;;;;2.55;1.30;;;26.90;99.90;;;;;;4813533;29;20069;-67
2022/07/13 09:29:11;;;;;;;2.88;1.20;;;27.30;99.90;;;;;;4775252;29;20468;-67
2022/07/13 09:31:52;;;;;;;2.70;1.30;;;27.50;99.90;;;;;;4807355;29;20414;-67
2022/07/13 09:34:21;;;;;;;3.97;1.27;;;27.80;99.90;;;;;;4791814;29;20514;-68
2022/07/13 09:37:09;;;;;;;1.83;1.30;;;28.10;99.80;;;;;;4820462;29;20042;-70
2022/07/13 09:40:06;;;;;;;4.35;1.30;;;28.00;98.40;;;;;;4805843;29;20039;-68
2022/07/13 09:42:38;;;;;;;4.50;1.17;;;28.10;98.60;;;;;;4804779;29;20588;-68
2022/07/13 09:47:55;;;;;;;7.53;1.15;;;28.50;96.40;;;;;;4817959;29;20069;-67
2022/07/13 09:50:37;;;;;;;1.65;1.00;;;28.60;96.30;;;;;;4810301;29;20515;-68
2022/07/13 09:53:23;;;;;;;1.45;1.00;;;28.70;95.50;;;;;;4805096;29;20054;-68
2022/07/13 09:55:51;;;;;;;3.17;1.10;;;28.90;95.10;;;;;;4825492;29;20059;-68
2022/07/13 09:58:41;;;;;;;3.80;1.10;;;29.00;95.00;;;;;;4817184;29;20054;-68
2022/07/13 10:01:08;;;;;;;2.30;0.95;;;29.50;93.90;;;;;;4820133;29;20053;-67
2022/07/13 10:03:37;;;;;;;3.05;0.80;;;29.60;91.70;;;;;;4814135;29;20475;-67
2022/07/13 10:06:13;;;;;;;2.55;0.80;;;29.50;90.80;;;;;;4819693;29;20050;-66
2022/07/13 10:08:41;;;;;;;3.03;0.90;;;29.70;91.10;;;;;;4818792;29;20042;-67
2022/07/13 10:11:08;;;;;;;3.55;1.05;;;29.90;90.80;;;;;;4832822;29;20573;-67
2022/07/13 10:13:38;;;;;;;4.85;0.93;;;30.60;90.40;;;;;;4819338;29;20046;-68
2022/07/13 10:16:05;;;;;;;2.20;1.10;;;30.80;89.20;;;;;;4820091;29;20046;-68
2022/07/13 10:18:39;;;;;;;1.73;1.08;;;30.80;87.90;;;;;;4818751;29;20085;-68
2022/07/13 10:21:15;;;;;;;2.38;0.90;;;30.50;87.90;;;;;;4819214;29;20042;-67
2022/07/13 10:23:43;;;;;;;2.50;1.00;;;30.40;87.90;;;;;;4819453;29;20123;-67
2022/07/13 10:26:21;;;;;;;3.95;1.00;;;30.70;87.20;;;;;;4820271;29;20046;-68
2022/07/13 10:29:01;;;;;;;2.92;1.20;;;30.70;86.50;;;;;;4814161;29;20049;-69
2022/07/13 10:31:31;;;;;;;3.10;1.20;;;30.70;86.50;;;;;;4813369;29;20511;-67
2022/07/13 10:34:02;;;;;;;1.63;0.95;;;30.80;86.00;;;;;;4819662;29;20412;-68
2022/07/13 10:36:49;;;;;;;3.00;1.17;;;30.70;85.50;;;;;;4802559;29;20080;-68
2022/07/13 10:39:24;;;;;;;1.17;0.90;;;30.60;85.60;;;;;;4805347;29;20049;-68
2022/07/13 10:42:03;;;;;;;3.17;1.33;;;30.30;85.60;;;;;;4800008;29;20046;-68
2022/07/13 10:44:38;;;;;;;3.42;1.13;;;30.40;86.30;;;;;;4816784;29;20556;-68
2022/07/13 10:47:11;;;;;;;2.85;1.00;;;30.50;86.00;;;;;;4818525;29;20054;-68
2022/07/13 10:49:44;;;;;;;1.17;0.85;;;30.60;86.00;;;;;;4819173;29;20522;-67
2022/07/13 10:52:21;;;;;;;0.88;0.80;;;30.70;85.10;;;;;;4795026;29;20058;-68
2022/07/13 10:55:11;;;;;;;1.27;0.88;;;30.70;84.80;;;;;;4813087;29;20533;-67
2022/07/13 10:57:41;;;;;;;1.83;0.80;;;30.90;83.60;;;;;;4828223;29;20077;-67
2022/07/13 11:00:22;;;;;;;2.25;0.90;;;31.60;81.60;;;;;;4819438;29;20047;-67
2022/07/13 11:03:05;;;;;;;3.10;1.17;;;32.00;81.00;;;;;;4819368;29;20050;-67
2022/07/13 11:05:35;;;;;;;4.03;0.98;;;32.40;78.10;;;;;;4810373;29;20054;-67
2022/07/13 11:08:13;;;;;;;2.13;0.80;;;32.60;77.40;;;;;;4819286;29;20061;-67
2022/07/13 11:10:41;;;;;;;3.40;1.17;;;32.50;77.30;;;;;;4813214;29;20430;-67
2022/07/13 11:13:15;;;;;;;1.38;0.88;;;32.80;76.10;;;;;;4821930;29;20059;-67
2022/07/13 11:15:53;;;;;;;2.22;0.80;;;33.40;73.70;;;;;;4822139;29;20502;-68
2022/07/13 11:18:28;;;;;;;1.60;0.88;;;33.60;70.80;;;;;;4804433;29;20168;-67
2022/07/13 11:21:05;;;;;;;1.02;0.70;;;33.90;70.70;;;;;;4820403;29;20556;-67
2022/07/13 11:26:48;;;;;;;1.63;0.80;;;33.40;67.50;;;;;;4822215;29;20228;-68
2022/07/13 11:29:40;;;;;;;2.25;0.80;;;33.40;68.80;;;;;;4806268;29;20481;-68
2022/07/13 11:32:07;;;;;;;3.60;0.70;;;33.90;67.10;;;;;;4828283;29;20052;-68
2022/07/13 11:34:38;;;;;;;1.48;0.63;;;34.10;66.30;;;;;;4810011;29;20527;-67
2022/07/13 11:37:05;;;;;;;2.07;0.80;;;33.50;66.20;;;;;;4817893;29;20100;-67
2022/07/13 11:39:36;;;;;;;1.00;0.68;;;33.70;65.00;;;;;;4820912;29;20494;-68
2022/07/13 11:42:08;;;;;;;1.25;0.80;;;33.90;63.30;;;;;;4814194;29;20502;-67
2022/07/13 11:44:36;;;;;;;2.17;0.80;;;33.90;63.80;;;;;;4812592;29;20110;-67
2022/07/13 11:47:09;;;;;;;2.03;0.98;;;33.80;62.60;;;;;;4822290;29;20058;-66
2022/07/13 11:49:48;;;;;;;2.83;0.80;;;33.60;62.90;;;;;;4821451;29;20042;-67
2022/07/13 11:52:23;;;;;;;2.50;0.95;;;32.90;63.50;;;;;;4809541;29;20150;-67
2022/07/13 11:55:02;;;;;;;1.50;0.80;;;32.50;64.50;;;;;;4821612;29;20384;-67
2022/07/13 11:57:31;;;;;;;1.98;0.80;;;32.20;65.70;;;;;;4821072;29;20058;-68
2022/07/13 12:00:08;;;;;;;3.53;0.70;;;31.90;66.40;;;;;;4811010;29;20047;-68
2022/07/13 12:02:39;;;;;;;2.08;0.80;;;31.80;66.40;;;;;;4801339;29;20046;-67
2022/07/13 12:05:07;;;;;;;2.25;0.95;;;32.10;67.30;;;;;;4811900;29;20122;-68
2022/07/13 12:07:44;;;;;;;2.25;0.90;;;32.10;68.40;;;;;;4809530;29;20051;-68
2022/07/13 12:10:12;;;;;;;1.80;0.80;;;32.30;67.70;;;;;;4823173;29;20072;-68
2022/07/13 12:12:40;;;;;;;3.50;1.00;;;32.40;67.50;;;;;;4817568;29;20058;-68
2022/07/13 12:15:09;;;;;;;3.17;0.80;;;32.70;66.90;;;;;;4820515;29;20449;-68
2022/07/13 12:17:45;;;;;;;2.97;1.50;;;32.90;67.10;;;;;;4820640;29;20458;-68
2022/07/13 12:20:17;;;;;;;3.97;0.90;;;33.00;66.20;;;;;;4805486;29;20054;-68
2022/07/13 12:22:55;;;;;;;3.45;1.00;;;33.60;64.80;;;;;;4816721;29;20109;-68
2022/07/13 12:25:28;;;;;;;3.03;0.80;;;33.50;65.50;;;;;;4819808;29;20050;-67
2022/07/13 12:28:00;;;;;;;1.25;0.70;;;32.60;61.80;;;;;;4821174;29;20436;-66
2022/07/13 12:30:31;;;;;;;0.95;0.70;;;32.20;62.50;;;;;;4803309;29;20050;-68
2022/07/13 12:33:05;;;;;;;1.75;0.80;;;32.50;62.30;;;;;;4786274;29;20418;-67
2022/07/13 12:35:37;;;;;;;1.67;0.65;;;32.50;62.40;;;;;;4829876;29;20553;-67
2022/07/13 12:38:12;;;;;;;2.53;0.73;;;32.40;62.80;;;;;;4810235;29;20046;-67
2022/07/13 12:40:43;;;;;;;4.15;0.77;;;32.60;62.60;;;;;;4820859;29;20459;-66
2022/07/13 12:43:16;;;;;;;;;;;32.80;62.30;;;;;;4809484;29;20043;-67
2022/07/13 12:45:44;;;;;;;3.88;0.90;;;32.60;62.40;;;;;;4820702;29;19985;-67
2022/07/13 12:48:17;;;;;;;0.90;0.70;;;33.00;61.90;;;;;;4788533;29;20094;-67
2022/07/13 12:51:02;;;;;;;1.05;0.65;;;33.20;61.80;;;;;;4810721;29;20514;-66
2022/07/13 12:53:53;;;;;;;3.50;0.70;;;33.10;59.00;;;;;;4820437;29;20046;-67
2022/07/13 12:56:41;;;;;;;1.17;0.70;;;33.40;59.70;;;;;;4820734;29;20058;-67
2022/07/13 12:59:09;;;;;;;5.97;0.73;;;34.40;58.60;;;;;;4798571;29;20415;-66
2022/07/13 13:01:37;;;;;;;1.35;0.75;;;34.60;57.10;;;;;;4807646;29;20046;-68
2022/07/13 13:04:09;;;;;;;2.20;0.60;;;34.20;57.30;;;;;;4820348;29;20050;-67
2022/07/13 13:06:41;;;;;;;1.35;0.70;;;34.20;57.50;;;;;;4814786;29;20125;-69
2022/07/13 13:09:11;;;;;;;2.08;0.60;;;33.70;57.40;;;;;;4820743;29;20045;-67
2022/07/13 13:11:41;;;;;;;0.90;0.60;;;33.20;58.40;;;;;;4820980;29;20550;-67
2022/07/13 13:14:08;;;;;;;1.15;0.60;;;33.40;58.30;;;;;;4816699;29;20043;-67